sensor_id;sensor_type;location;lat;lon;timestamp;pressure;altitude;pressure_sealevel;temperature;humidity
74794;BME280;63320;50.768;6.724;2023-04-03T00:01:48;101452.09;;;5.21;62.16
74794;BME280;63320;50.768;6.724;2023-04-03T00:04:13;101453.03;;;5.11;62.35
74794;BME280;63320;50.768;6.724;2023-04-03T00:06:39;101450.34;;;5.28;62.18
74794;BME280;63320;50.768;6.724;2023-04-03T00:09:05;101446.03;;;5.20;62.25
74794;BME280;63320;50.768;6.724;2023-04-03T00:11:31;101444.28;;;5.24;62.03
74794;BME280;63320;50.768;6.724;2023-04-03T00:13:56;101443.41;;;5.24;62.14
74794;BME280;63320;50.768;6.724;2023-04-03T00:16:21;101446.81;;;5.35;62.25
74794;BME280;63320;50.768;6.724;2023-04-03T00:18:47;101451.19;;;5.30;62.29
74794;BME280;63320;50.768;6.724;2023-04-03T00:21:13;101444.41;;;5.00;62.84
74794;BME280;63320;50.768;6.724;2023-04-03T00:23:38;101443.56;;;5.02;63.76
74794;BME280;63320;50.768;6.724;2023-04-03T00:26:05;101446.97;;;5.10;63.17
74794;BME280;63320;50.768;6.724;2023-04-03T00:28:30;101446.09;;;5.07;63.57
74794;BME280;63320;50.768;6.724;2023-04-03T00:30:56;101447.03;;;4.97;64.41
74794;BME280;63320;50.768;6.724;2023-04-03T00:33:22;101444.38;;;5.06;63.71
74794;BME280;63320;50.768;6.724;2023-04-03T00:35:47;101442.69;;;4.99;64.14
74794;BME280;63320;50.768;6.724;2023-04-03T00:38:13;101439.09;;;5.15;64.39
74794;BME280;63320;50.768;6.724;2023-04-03T00:40:42;101443.47;;;5.14;64.53
74794;BME280;63320;50.768;6.724;2023-04-03T00:43:12;101446.22;;;4.87;64.92
74794;BME280;63320;50.768;6.724;2023-04-03T00:45:39;101443.56;;;4.91;65.44
74794;BME280;63320;50.768;6.724;2023-04-03T00:48:06;101445.34;;;4.88;65.57
74794;BME280;63320;50.768;6.724;2023-04-03T00:50:34;101445.28;;;4.99;65.58
74794;BME280;63320;50.768;6.724;2023-04-03T00:53:01;101455.84;;;4.74;66.58
74794;BME280;63320;50.768;6.724;2023-04-03T00:55:27;101442.78;;;4.83;66.40
74794;BME280;63320;50.768;6.724;2023-04-03T00:57:53;101453.13;;;4.96;65.82
74794;BME280;63320;50.768;6.724;2023-04-03T01:00:22;101449.66;;;4.95;66.01
74794;BME280;63320;50.768;6.724;2023-04-03T01:02:48;101445.22;;;5.11;65.58
74794;BME280;63320;50.768;6.724;2023-04-03T01:05:15;101448.72;;;5.05;66.55
74794;BME280;63320;50.768;6.724;2023-04-03T01:07:41;101434.84;;;5.00;66.30
74794;BME280;63320;50.768;6.724;2023-04-03T01:10:10;101440.09;;;4.94;66.34
74794;BME280;63320;50.768;6.724;2023-04-03T01:12:38;101446.25;;;4.82;66.54
74794;BME280;63320;50.768;6.724;2023-04-03T01:15:06;101439.38;;;4.67;67.14
74794;BME280;63320;50.768;6.724;2023-04-03T01:17:35;101441.03;;;4.81;67.51
74794;BME280;63320;50.768;6.724;2023-04-03T01:23:06;101442.81;;;4.73;68.04
74794;BME280;63320;50.768;6.724;2023-04-03T01:25:40;101433.97;;;5.01;67.38
74794;BME280;63320;50.768;6.724;2023-04-03T01:28:07;101438.38;;;4.87;67.43
74794;BME280;63320;50.768;6.724;2023-04-03T01:30:36;101435.78;;;4.93;66.63
74794;BME280;63320;50.768;6.724;2023-04-03T01:33:06;101431.44;;;4.92;66.29
74794;BME280;63320;50.768;6.724;2023-04-03T01:35:32;101427.97;;;4.85;66.04
74794;BME280;63320;50.768;6.724;2023-04-03T01:37:57;101438.41;;;4.84;66.35
74794;BME280;63320;50.768;6.724;2023-04-03T01:40:22;101432.41;;;4.73;66.96
74794;BME280;63320;50.768;6.724;2023-04-03T01:42:47;101437.56;;;4.83;66.50
74794;BME280;63320;50.768;6.724;2023-04-03T01:45:13;101435.00;;;4.71;67.78
74794;BME280;63320;50.768;6.724;2023-04-03T01:47:38;101434.03;;;4.90;67.11
74794;BME280;63320;50.768;6.724;2023-04-03T01:50:05;101433.22;;;4.79;67.82
74794;BME280;63320;50.768;6.724;2023-04-03T01:52:31;101435.00;;;4.66;67.66
74794;BME280;63320;50.768;6.724;2023-04-03T01:54:56;101440.25;;;4.60;68.17
74794;BME280;63320;50.768;6.724;2023-04-03T01:57:21;101440.28;;;4.56;68.90
74794;BME280;63320;50.768;6.724;2023-04-03T01:59:47;101438.50;;;4.61;68.64
74794;BME280;63320;50.768;6.724;2023-04-03T02:02:12;101442.03;;;4.52;68.45
74794;BME280;63320;50.768;6.724;2023-04-03T02:04:37;101437.66;;;4.59;67.58
74794;BME280;63320;50.768;6.724;2023-04-03T02:07:04;101436.00;;;4.43;68.17
74794;BME280;63320;50.768;6.724;2023-04-03T02:09:29;101441.16;;;4.53;68.18
74794;BME280;63320;50.768;6.724;2023-04-03T02:11:55;101444.66;;;4.40;68.45
74794;BME280;63320;50.768;6.724;2023-04-03T02:14:20;101443.78;;;4.41;68.65
74794;BME280;63320;50.768;6.724;2023-04-03T02:16:45;101436.03;;;4.29;69.07
74794;BME280;63320;50.768;6.724;2023-04-03T02:19:11;101447.31;;;4.37;68.31
74794;BME280;63320;50.768;6.724;2023-04-03T02:21:36;101446.41;;;4.41;68.44
74794;BME280;63320;50.768;6.724;2023-04-03T02:24:03;101447.31;;;4.25;68.25
74794;BME280;63320;50.768;6.724;2023-04-03T02:26:28;101450.72;;;4.45;67.82
74794;BME280;63320;50.768;6.724;2023-04-03T02:28:53;101455.06;;;4.46;67.56
74794;BME280;63320;50.768;6.724;2023-04-03T02:31:19;101442.97;;;4.37;68.08
74794;BME280;63320;50.768;6.724;2023-04-03T02:33:44;101453.28;;;4.63;67.00
74794;BME280;63320;50.768;6.724;2023-04-03T02:36:10;101450.72;;;4.45;67.71
74794;BME280;63320;50.768;6.724;2023-04-03T02:38:35;101444.72;;;4.25;68.63
74794;BME280;63320;50.768;6.724;2023-04-03T02:41:04;101438.63;;;4.26;68.40
74794;BME280;63320;50.768;6.724;2023-04-03T02:43:30;101448.19;;;4.28;68.60
74794;BME280;63320;50.768;6.724;2023-04-03T02:45:55;101454.28;;;4.13;69.01
74794;BME280;63320;50.768;6.724;2023-04-03T02:48:21;101456.88;;;4.20;68.80
74794;BME280;63320;50.768;6.724;2023-04-03T02:50:46;101449.06;;;4.16;69.00
74794;BME280;63320;50.768;6.724;2023-04-03T02:53:12;101446.44;;;4.26;67.79
74794;BME280;63320;50.768;6.724;2023-04-03T02:55:37;101454.25;;;4.24;68.63
74794;BME280;63320;50.768;6.724;2023-04-03T02:58:03;101452.44;;;4.46;67.80
74794;BME280;63320;50.768;6.724;2023-04-03T03:00:29;101453.44;;;4.07;69.02
74794;BME280;63320;50.768;6.724;2023-04-03T03:02:54;101448.22;;;4.05;69.11
74794;BME280;63320;50.768;6.724;2023-04-03T03:05:20;101452.50;;;4.35;68.02
74794;BME280;63320;50.768;6.724;2023-04-03T03:07:45;101453.47;;;3.87;69.05
74794;BME280;63320;50.768;6.724;2023-04-03T03:10:10;101463.00;;;3.70;69.85
74794;BME280;63320;50.768;6.724;2023-04-03T03:12:36;101463.00;;;3.76;70.03
74794;BME280;63320;50.768;6.724;2023-04-03T03:15:03;101461.28;;;3.62;70.39
74794;BME280;63320;50.768;6.724;2023-04-03T03:17:28;101460.41;;;3.65;70.13
74794;BME280;63320;50.768;6.724;2023-04-03T03:19:54;101459.53;;;3.54;69.97
74794;BME280;63320;50.768;6.724;2023-04-03T03:22:19;101456.06;;;3.59;69.83
74794;BME280;63320;50.768;6.724;2023-04-03T03:24:44;101459.53;;;3.68;69.47
74794;BME280;63320;50.768;6.724;2023-04-03T03:27:10;101456.06;;;3.61;70.28
74794;BME280;63320;50.768;6.724;2023-04-03T03:29:35;101453.44;;;3.90;68.84
74794;BME280;63320;50.768;6.724;2023-04-03T03:32:02;101454.31;;;3.46;69.91
74794;BME280;63320;50.768;6.724;2023-04-03T03:34:27;101452.56;;;3.24;70.47
74794;BME280;63320;50.768;6.724;2023-04-03T03:36:52;101452.59;;;3.54;69.38
74794;BME280;63320;50.768;6.724;2023-04-03T03:39:18;101463.84;;;3.61;69.38
74794;BME280;63320;50.768;6.724;2023-04-03T03:41:43;101460.38;;;3.86;69.06
74794;BME280;63320;50.768;6.724;2023-04-03T03:44:08;101450.84;;;3.56;68.72
74794;BME280;63320;50.768;6.724;2023-04-03T03:46:34;101450.00;;;3.31;70.27
74794;BME280;63320;50.768;6.724;2023-04-03T03:49:00;101454.31;;;3.28;70.09
74794;BME280;63320;50.768;6.724;2023-04-03T03:51:26;101452.56;;;3.25;69.73
74794;BME280;63320;50.768;6.724;2023-04-03T03:53:51;101447.38;;;3.22;69.97
74794;BME280;63320;50.768;6.724;2023-04-03T03:56:16;101456.00;;;3.12;69.92
74794;BME280;63320;50.768;6.724;2023-04-03T03:58:42;101461.19;;;3.21;69.31
74794;BME280;63320;50.768;6.724;2023-04-03T04:01:07;101462.03;;;2.93;71.00
74794;BME280;63320;50.768;6.724;2023-04-03T04:03:33;101467.34;;;3.42;69.89
74794;BME280;63320;50.768;6.724;2023-04-03T04:05:59;101463.88;;;3.52;68.73
74794;BME280;63320;50.768;6.724;2023-04-03T04:08:25;101457.72;;;3.08;69.95
74794;BME280;63320;50.768;6.724;2023-04-03T04:10:50;101467.25;;;3.02;70.34
74794;BME280;63320;50.768;6.724;2023-04-03T04:13:16;101465.50;;;3.04;69.97
74794;BME280;63320;50.768;6.724;2023-04-03T04:15:41;101457.69;;;2.93;69.64
74794;BME280;63320;50.768;6.724;2023-04-03T04:18:07;101459.41;;;2.87;70.30
74794;BME280;63320;50.768;6.724;2023-04-03T04:20:32;101456.00;;;3.01;70.56
74794;BME280;63320;50.768;6.724;2023-04-03T04:22:59;101466.44;;;3.38;69.45
74794;BME280;63320;50.768;6.724;2023-04-03T04:25:24;101455.03;;;2.81;70.51
74794;BME280;63320;50.768;6.724;2023-04-03T04:27:49;101467.06;;;2.53;71.67
74794;BME280;63320;50.768;6.724;2023-04-03T04:30:15;101464.50;;;2.70;71.39
74794;BME280;63320;50.768;6.724;2023-04-03T04:32:40;101464.63;;;2.97;70.79
74794;BME280;63320;50.768;6.724;2023-04-03T04:35:06;101467.19;;;2.85;70.40
74794;BME280;63320;50.768;6.724;2023-04-03T04:37:32;101471.50;;;2.77;70.33
74794;BME280;63320;50.768;6.724;2023-04-03T04:39:59;101471.50;;;2.78;70.59
74794;BME280;63320;50.768;6.724;2023-04-03T04:42:24;101467.88;;;2.50;71.20
74794;BME280;63320;50.768;6.724;2023-04-03T04:44:50;101473.97;;;2.54;71.35
74794;BME280;63320;50.768;6.724;2023-04-03T04:47:16;101475.75;;;2.64;70.92
74794;BME280;63320;50.768;6.724;2023-04-03T04:49:41;101481.91;;;2.91;69.78
74794;BME280;63320;50.768;6.724;2023-04-03T04:52:06;101483.59;;;2.78;70.19
74794;BME280;63320;50.768;6.724;2023-04-03T04:54:32;101484.38;;;2.58;70.92
74794;BME280;63320;50.768;6.724;2023-04-03T04:56:59;101485.25;;;2.60;70.65
74794;BME280;63320;50.768;6.724;2023-04-03T04:59:24;101487.88;;;2.62;70.96
74794;BME280;63320;50.768;6.724;2023-04-03T05:01:49;101493.00;;;2.53;71.24
74794;BME280;63320;50.768;6.724;2023-04-03T05:04:15;101491.34;;;2.69;70.42
74794;BME280;63320;50.768;6.724;2023-04-03T05:06:40;101490.41;;;2.54;71.05
74794;BME280;63320;50.768;6.724;2023-04-03T05:09:06;101493.91;;;2.59;71.19
74794;BME280;63320;50.768;6.724;2023-04-03T05:11:31;101501.59;;;2.41;71.77
74794;BME280;63320;50.768;6.724;2023-04-03T05:13:58;101495.75;;;2.82;71.17
74794;BME280;63320;50.768;6.724;2023-04-03T05:16:23;101503.44;;;2.64;71.17
74794;BME280;63320;50.768;6.724;2023-04-03T05:18:49;101502.78;;;3.07;69.63
74794;BME280;63320;50.768;6.724;2023-04-03T05:21:14;101507.03;;;2.89;70.21
74794;BME280;63320;50.768;6.724;2023-04-03T05:23:39;101512.25;;;2.98;70.56
74794;BME280;63320;50.768;6.724;2023-04-03T05:26:05;101514.00;;;3.05;70.11
74794;BME280;63320;50.768;6.724;2023-04-03T05:28:30;101515.69;;;2.89;70.31
74794;BME280;63320;50.768;6.724;2023-04-03T05:30:58;101522.72;;;3.21;69.50
74794;BME280;63320;50.768;6.724;2023-04-03T05:33:24;101521.00;;;3.17;69.20
74794;BME280;63320;50.768;6.724;2023-04-03T05:35:50;101522.75;;;3.30;68.59
74794;BME280;63320;50.768;6.724;2023-04-03T05:38:15;101519.31;;;3.32;68.61
74794;BME280;63320;50.768;6.724;2023-04-03T05:40:41;101520.03;;;2.87;69.26
74794;BME280;63320;50.768;6.724;2023-04-03T05:43:06;101522.69;;;3.07;68.92
74794;BME280;63320;50.768;6.724;2023-04-03T05:45:32;101527.03;;;3.14;68.91
74794;BME280;63320;50.768;6.724;2023-04-03T05:47:58;101531.47;;;3.47;68.63
74794;BME280;63320;50.768;6.724;2023-04-03T05:50:24;101531.47;;;3.49;67.99
74794;BME280;63320;50.768;6.724;2023-04-03T05:52:50;101538.38;;;3.41;68.40
74794;BME280;63320;50.768;6.724;2023-04-03T05:55:17;101535.78;;;3.42;67.71
74794;BME280;63320;50.768;6.724;2023-04-03T05:57:43;101532.31;;;3.46;67.40
74794;BME280;63320;50.768;6.724;2023-04-03T06:00:11;101541.00;;;3.60;67.01
74794;BME280;63320;50.768;6.724;2023-04-03T06:02:37;101537.56;;;3.74;66.17
74794;BME280;63320;50.768;6.724;2023-04-03T06:05:04;101539.28;;;3.76;66.13
74794;BME280;63320;50.768;6.724;2023-04-03T06:07:30;101534.97;;;3.61;66.73
74794;BME280;63320;50.768;6.724;2023-04-03T06:09:56;101541.88;;;3.56;66.33
74794;BME280;63320;50.768;6.724;2023-04-03T06:12:22;101541.06;;;3.82;66.27
74794;BME280;63320;50.768;6.724;2023-04-03T06:14:48;101547.97;;;3.84;65.75
74794;BME280;63320;50.768;6.724;2023-04-03T06:17:14;101545.38;;;3.90;65.49
74794;BME280;63320;50.768;6.724;2023-04-03T06:19:39;101550.56;;;3.80;66.26
74794;BME280;63320;50.768;6.724;2023-04-03T06:22:06;101554.91;;;3.81;65.25
74794;BME280;63320;50.768;6.724;2023-04-03T06:24:32;101553.19;;;3.77;65.27
74794;BME280;63320;50.768;6.724;2023-04-03T06:26:57;101556.66;;;3.99;65.43
74794;BME280;63320;50.768;6.724;2023-04-03T06:29:23;101563.59;;;3.86;65.79
74794;BME280;63320;50.768;6.724;2023-04-03T06:31:49;101556.69;;;3.97;65.14
74794;BME280;63320;50.768;6.724;2023-04-03T06:34:15;101559.25;;;3.96;65.25
74794;BME280;63320;50.768;6.724;2023-04-03T06:36:40;101566.22;;;3.92;65.91
74794;BME280;63320;50.768;6.724;2023-04-03T06:39:08;101559.28;;;4.08;65.50
74794;BME280;63320;50.768;6.724;2023-04-03T06:41:34;101561.88;;;4.09;65.28
74794;BME280;63320;50.768;6.724;2023-04-03T06:43:59;101566.22;;;4.18;64.65
74794;BME280;63320;50.768;6.724;2023-04-03T06:46:26;101562.75;;;4.28;65.19
74794;BME280;63320;50.768;6.724;2023-04-03T06:48:52;101568.81;;;4.29;64.75
74794;BME280;63320;50.768;6.724;2023-04-03T06:51:20;101566.19;;;4.46;64.51
74794;BME280;63320;50.768;6.724;2023-04-03T06:53:46;101563.59;;;4.30;64.61
74794;BME280;63320;50.768;6.724;2023-04-03T06:56:13;101568.81;;;4.35;63.98
74794;BME280;63320;50.768;6.724;2023-04-03T06:58:38;101564.44;;;4.55;63.22
74794;BME280;63320;50.768;6.724;2023-04-03T07:01:04;101569.66;;;4.54;63.57
74794;BME280;63320;50.768;6.724;2023-04-03T07:03:29;101572.25;;;4.49;63.23
74794;BME280;63320;50.768;6.724;2023-04-03T07:05:54;101571.41;;;4.39;63.11
74794;BME280;63320;50.768;6.724;2023-04-03T07:08:20;101565.34;;;4.18;63.38
74794;BME280;63320;50.768;6.724;2023-04-03T07:10:45;101564.47;;;4.43;63.03
74794;BME280;63320;50.768;6.724;2023-04-03T07:13:12;101568.78;;;4.56;62.64
74794;BME280;63320;50.768;6.724;2023-04-03T07:15:37;101566.16;;;4.59;62.68
74794;BME280;63320;50.768;6.724;2023-04-03T07:18:03;101559.22;;;4.60;61.55
74794;BME280;63320;50.768;6.724;2023-04-03T07:20:28;101560.09;;;4.57;61.61
74794;BME280;63320;50.768;6.724;2023-04-03T07:22:53;101568.78;;;4.53;62.11
74794;BME280;63320;50.768;6.724;2023-04-03T07:25:19;101570.47;;;4.66;61.45
74794;BME280;63320;50.768;6.724;2023-04-03T07:27:44;101563.56;;;4.62;61.91
74794;BME280;63320;50.768;6.724;2023-04-03T07:30:12;101563.53;;;4.72;60.95
74794;BME280;63320;50.768;6.724;2023-04-03T07:32:37;101561.81;;;4.67;60.70
74794;BME280;63320;50.768;6.724;2023-04-03T07:35:03;101562.63;;;4.80;61.35
74794;BME280;63320;50.768;6.724;2023-04-03T07:37:28;101565.22;;;4.91;61.28
74794;BME280;63320;50.768;6.724;2023-04-03T07:39:54;101565.25;;;4.80;61.08
74794;BME280;63320;50.768;6.724;2023-04-03T07:42:19;101574.81;;;4.77;60.91
74794;BME280;63320;50.768;6.724;2023-04-03T07:44:44;101570.41;;;4.91;60.42
74794;BME280;63320;50.768;6.724;2023-04-03T07:47:11;101570.41;;;5.00;59.85
74794;BME280;63320;50.768;6.724;2023-04-03T07:49:36;101566.06;;;4.96;60.09
74794;BME280;63320;50.768;6.724;2023-04-03T07:52:02;101575.66;;;4.89;60.32
74794;BME280;63320;50.768;6.724;2023-04-03T07:54:27;101573.91;;;4.90;60.77
74794;BME280;63320;50.768;6.724;2023-04-03T07:56:52;101577.38;;;4.98;60.20
74794;BME280;63320;50.768;6.724;2023-04-03T07:59:18;101580.03;;;4.78;60.63
74794;BME280;63320;50.768;6.724;2023-04-03T08:01:43;101572.19;;;4.92;60.33
74794;BME280;63320;50.768;6.724;2023-04-03T08:04:10;101578.19;;;5.12;59.96
74794;BME280;63320;50.768;6.724;2023-04-03T08:06:35;101579.91;;;5.10;59.85
74794;BME280;63320;50.768;6.724;2023-04-03T08:09:02;101576.41;;;5.24;60.38
74794;BME280;63320;50.768;6.724;2023-04-03T08:11:27;101579.88;;;5.16;59.98
74794;BME280;63320;50.768;6.724;2023-04-03T08:13:52;101579.97;;;5.03;58.97
74794;BME280;63320;50.768;6.724;2023-04-03T08:16:20;101582.50;;;5.16;59.66
74794;BME280;63320;50.768;6.724;2023-04-03T08:18:47;101573.81;;;5.22;59.73
74794;BME280;63320;50.768;6.724;2023-04-03T08:21:14;101574.66;;;5.24;59.32
74794;BME280;63320;50.768;6.724;2023-04-03T08:23:40;101585.03;;;5.33;59.22
74794;BME280;63320;50.768;6.724;2023-04-03T08:26:07;101573.72;;;5.31;58.85
74794;BME280;63320;50.768;6.724;2023-04-03T08:28:33;101581.63;;;5.24;59.06
74794;BME280;63320;50.768;6.724;2023-04-03T08:31:02;101585.03;;;5.32;59.40
74794;BME280;63320;50.768;6.724;2023-04-03T08:33:28;101588.47;;;5.44;58.79
74794;BME280;63320;50.768;6.724;2023-04-03T08:35:53;101585.84;;;5.46;59.38
74794;BME280;63320;50.768;6.724;2023-04-03T08:38:20;101594.53;;;5.45;59.31
74794;BME280;63320;50.768;6.724;2023-04-03T08:40:45;101598.06;;;5.39;59.05
74794;BME280;63320;50.768;6.724;2023-04-03T08:43:27;101594.53;;;5.48;58.78
74794;BME280;63320;50.768;6.724;2023-04-03T08:45:57;101591.94;;;5.45;57.13
74794;BME280;63320;50.768;6.724;2023-04-03T08:48:27;101589.25;;;5.60;57.51
74794;BME280;63320;50.768;6.724;2023-04-03T08:50:58;101593.56;;;5.61;56.96
74794;BME280;63320;50.768;6.724;2023-04-03T08:53:28;101597.97;;;5.58;56.64
74794;BME280;63320;50.768;6.724;2023-04-03T08:55:55;101595.34;;;5.56;56.19
74794;BME280;63320;50.768;6.724;2023-04-03T08:58:21;101591.81;;;5.66;56.11
74794;BME280;63320;50.768;6.724;2023-04-03T09:00:50;101594.38;;;5.76;56.67
74794;BME280;63320;50.768;6.724;2023-04-03T09:03:17;101599.59;;;5.79;56.25
74794;BME280;63320;50.768;6.724;2023-04-03T09:05:47;101589.19;;;5.71;57.22
74794;BME280;63320;50.768;6.724;2023-04-03T09:08:21;101589.16;;;5.79;56.53
74794;BME280;63320;50.768;6.724;2023-04-03T09:10:48;101593.50;;;5.72;56.03
74794;BME280;63320;50.768;6.724;2023-04-03T09:13:22;101588.25;;;5.81;56.36
74794;BME280;63320;50.768;6.724;2023-04-03T09:15:49;101591.72;;;5.85;56.64
74794;BME280;63320;50.768;6.724;2023-04-03T09:18:17;101592.56;;;5.91;55.62
74794;BME280;63320;50.768;6.724;2023-04-03T09:20:46;101596.94;;;5.85;54.98
74794;BME280;63320;50.768;6.724;2023-04-03T09:23:18;101594.34;;;5.83;55.03
74794;BME280;63320;50.768;6.724;2023-04-03T09:25:44;101589.03;;;5.91;55.09
74794;BME280;63320;50.768;6.724;2023-04-03T09:28:11;101589.91;;;5.99;55.08
74794;BME280;63320;50.768;6.724;2023-04-03T09:30:37;101589.88;;;6.04;54.52
74794;BME280;63320;50.768;6.724;2023-04-03T09:33:02;101600.31;;;6.04;53.71
74794;BME280;63320;50.768;6.724;2023-04-03T09:35:30;101599.47;;;6.03;53.82
74794;BME280;63320;50.768;6.724;2023-04-03T09:37:59;101592.41;;;6.11;54.14
74794;BME280;63320;50.768;6.724;2023-04-03T09:40:32;101590.63;;;6.19;55.30
74794;BME280;63320;50.768;6.724;2023-04-03T09:43:00;101587.88;;;6.32;55.50
74794;BME280;63320;50.768;6.724;2023-04-03T09:45:29;101601.88;;;6.26;54.85
74794;BME280;63320;50.768;6.724;2023-04-03T09:48:05;101596.69;;;6.21;54.43
74794;BME280;63320;50.768;6.724;2023-04-03T09:50:31;101594.88;;;6.30;53.55
74794;BME280;63320;50.768;6.724;2023-04-03T09:52:56;101596.53;;;6.40;53.00
74794;BME280;63320;50.768;6.724;2023-04-03T09:55:23;101585.25;;;6.35;53.04
74794;BME280;63320;50.768;6.724;2023-04-03T09:57:49;101587.88;;;6.35;52.69
74794;BME280;63320;50.768;6.724;2023-04-03T10:00:22;101586.97;;;6.37;52.70
74794;BME280;63320;50.768;6.724;2023-04-03T10:02:51;101581.81;;;6.33;52.23
74794;BME280;63320;50.768;6.724;2023-04-03T10:05:30;101580.81;;;6.44;53.05
74794;BME280;63320;50.768;6.724;2023-04-03T10:08:11;101579.91;;;6.50;53.61
74794;BME280;63320;50.768;6.724;2023-04-03T10:10:45;101579.03;;;6.46;52.72
74794;BME280;63320;50.768;6.724;2023-04-03T10:13:12;101576.47;;;6.45;51.59
74794;BME280;63320;50.768;6.724;2023-04-03T10:15:42;101573.81;;;6.49;51.68
74794;BME280;63320;50.768;6.724;2023-04-03T10:18:24;101574.59;;;6.59;50.72
74794;BME280;63320;50.768;6.724;2023-04-03T10:20:54;101566.69;;;6.62;50.12
74794;BME280;63320;50.768;6.724;2023-04-03T10:23:26;101573.78;;;6.53;47.98
74794;BME280;63320;50.768;6.724;2023-04-03T10:26:03;101566.72;;;6.61;48.99
74794;BME280;63320;50.768;6.724;2023-04-03T10:28:37;101567.59;;;6.61;47.59
74794;BME280;63320;50.768;6.724;2023-04-03T10:31:11;101566.63;;;6.70;48.66
74794;BME280;63320;50.768;6.724;2023-04-03T10:33:52;101563.91;;;6.81;49.41
74794;BME280;63320;50.768;6.724;2023-04-03T10:36:26;101568.25;;;6.80;49.30
74794;BME280;63320;50.768;6.724;2023-04-03T10:38:59;101558.69;;;6.79;50.32
74794;BME280;63320;50.768;6.724;2023-04-03T10:41:34;101559.47;;;6.86;50.58
74794;BME280;63320;50.768;6.724;2023-04-03T10:44:12;101556.78;;;6.92;50.63
74794;BME280;63320;50.768;6.724;2023-04-03T10:46:43;101559.34;;;6.98;49.78
74794;BME280;63320;50.768;6.724;2023-04-03T10:49:17;101552.44;;;6.94;49.33
74794;BME280;63320;50.768;6.724;2023-04-03T10:51:46;101558.47;;;6.99;48.04
74794;BME280;63320;50.768;6.724;2023-04-03T10:54:16;101558.44;;;7.00;47.70
74794;BME280;63320;50.768;6.724;2023-04-03T10:56:47;101561.78;;;7.12;47.93
74794;BME280;63320;50.768;6.724;2023-04-03T10:59:18;101556.56;;;7.12;47.26
74794;BME280;63320;50.768;6.724;2023-04-03T11:01:48;101553.03;;;7.14;46.25
74794;BME280;63320;50.768;6.724;2023-04-03T11:04:18;101556.47;;;7.19;45.81
74794;BME280;63320;50.768;6.724;2023-04-03T11:06:46;101550.34;;;7.20;45.54
74794;BME280;63320;50.768;6.724;2023-04-03T11:09:19;101555.53;;;7.22;46.11
74794;BME280;63320;50.768;6.724;2023-04-03T11:11:46;101553.78;;;7.24;44.98
74794;BME280;63320;50.768;6.724;2023-04-03T11:14:15;101547.78;;;7.16;44.96
74794;BME280;63320;50.768;6.724;2023-04-03T11:16:46;101545.94;;;7.22;43.83
74794;BME280;63320;50.768;6.724;2023-04-03T11:19:18;101551.13;;;7.29;44.78
74794;BME280;63320;50.768;6.724;2023-04-03T11:21:48;101545.00;;;7.30;44.30
74794;BME280;63320;50.768;6.724;2023-04-03T11:24:22;101548.38;;;7.36;43.76
74794;BME280;63320;50.768;6.724;2023-04-03T11:26:49;101545.69;;;7.44;43.06
74794;BME280;63320;50.768;6.724;2023-04-03T11:29:19;101538.75;;;7.40;41.66
74794;BME280;63320;50.768;6.724;2023-04-03T11:32:01;101531.75;;;7.40;42.62
74794;BME280;63320;50.768;6.724;2023-04-03T11:34:34;101539.41;;;7.56;43.20
74794;BME280;63320;50.768;6.724;2023-04-03T11:37:01;101534.22;;;7.51;40.19
74794;BME280;63320;50.768;6.724;2023-04-03T11:39:31;101524.56;;;7.56;41.16
74794;BME280;63320;50.768;6.724;2023-04-03T11:42:15;101518.50;;;7.52;42.73
74794;BME280;63320;50.768;6.724;2023-04-03T11:44:41;101521.63;;;7.76;42.26
74794;BME280;63320;50.768;6.724;2023-04-03T11:47:08;101520.09;;;7.63;41.31
74794;BME280;63320;50.768;6.724;2023-04-03T11:49:59;101509.66;;;7.61;41.66
74794;BME280;63320;50.768;6.724;2023-04-03T11:52:56;101506.84;;;7.73;40.08
74794;BME280;63320;50.768;6.724;2023-04-03T11:55:44;101503.06;;;7.91;40.67
74794;BME280;63320;50.768;6.724;2023-04-03T11:58:14;101503.91;;;7.92;42.37
74794;BME280;63320;50.768;6.724;2023-04-03T12:00:53;101500.03;;;8.16;43.16
74794;BME280;63320;50.768;6.724;2023-04-03T12:03:33;101499.16;;;8.15;42.52
74794;BME280;63320;50.768;6.724;2023-04-03T12:08:59;101490.97;;;8.34;42.55
74794;BME280;63320;50.768;6.724;2023-04-03T12:11:28;101482.16;;;8.39;42.11
74794;BME280;63320;50.768;6.724;2023-04-03T12:14:04;101479.66;;;8.31;40.39
74794;BME280;63320;50.768;6.724;2023-04-03T12:16:32;101473.19;;;8.51;41.35
74794;BME280;63320;50.768;6.724;2023-04-03T12:19:00;101474.69;;;8.63;40.97
74794;BME280;63320;50.768;6.724;2023-04-03T12:24:30;101479.63;;;8.79;40.68
74794;BME280;63320;50.768;6.724;2023-04-03T12:27:09;101480.44;;;8.81;38.98
74794;BME280;63320;50.768;6.724;2023-04-03T12:29:43;101476.31;;;8.70;38.51
74794;BME280;63320;50.768;6.724;2023-04-03T12:32:22;101476.59;;;8.98;39.29
74794;BME280;63320;50.768;6.724;2023-04-03T12:34:58;101473.63;;;9.15;38.82
74794;BME280;63320;50.768;6.724;2023-04-03T12:37:43;101470.56;;;9.33;38.46
74794;BME280;63320;50.768;6.724;2023-04-03T12:40:21;101461.41;;;9.51;37.21
74794;BME280;63320;50.768;6.724;2023-04-03T12:43:14;101460.34;;;9.58;37.79
74794;BME280;63320;50.768;6.724;2023-04-03T12:45:44;101464.00;;;9.88;37.25
74794;BME280;63320;50.768;6.724;2023-04-03T12:48:15;101453.31;;;9.96;36.11
74794;BME280;63320;50.768;6.724;2023-04-03T12:50:42;101452.34;;;9.98;35.66
74794;BME280;63320;50.768;6.724;2023-04-03T12:53:12;101453.72;;;10.13;36.16
74794;BME280;63320;50.768;6.724;2023-04-03T12:55:39;101453.44;;;10.24;34.91
74794;BME280;63320;50.768;6.724;2023-04-03T12:58:15;101450.38;;;10.41;35.77
74794;BME280;63320;50.768;6.724;2023-04-03T13:00:41;101446.03;;;10.40;35.17
74794;BME280;63320;50.768;6.724;2023-04-03T13:03:21;101447.59;;;10.76;36.05
74794;BME280;63320;50.768;6.724;2023-04-03T13:05:47;101445.66;;;10.83;35.82
74794;BME280;63320;50.768;6.724;2023-04-03T13:08:13;101441.16;;;10.86;34.89
74794;BME280;63320;50.768;6.724;2023-04-03T13:10:52;101447.34;;;10.85;33.79
74794;BME280;63320;50.768;6.724;2023-04-03T13:13:19;101442.41;;;11.03;32.64